sensor_id;sensor_type;location;lat;lon;timestamp;P1;durP1;ratioP1;P2;durP2;ratioP2
51214;SDS011;63849;47.546;19.254;2022-11-15T00:04:07;33.97;;;25.08;;
51214;SDS011;63849;47.546;19.254;2022-11-15T00:07:40;41.80;;;28.27;;
51214;SDS011;63849;47.546;19.254;2022-11-15T00:11:32;37.60;;;27.52;;
51214;SDS011;63849;47.546;19.254;2022-11-15T00:14:48;32.72;;;24.98;;
51214;SDS011;63849;47.546;19.254;2022-11-15T00:21:27;78.65;;;44.55;;
51214;SDS011;63849;47.546;19.254;2022-11-15T00:35:32;38.95;;;29.02;;
51214;SDS011;63849;47.546;19.254;2022-11-15T00:38:14;41.88;;;30.13;;
51214;SDS011;63849;47.546;19.254;2022-11-15T00:41:19;35.22;;;28.20;;
51214;SDS011;63849;47.546;19.254;2022-11-15T00:47:29;38.53;;;32.47;;
51214;SDS011;63849;47.546;19.254;2022-11-15T00:51:02;38.10;;;30.33;;
51214;SDS011;63849;47.546;19.254;2022-11-15T00:54:01;36.83;;;30.38;;
51214;SDS011;63849;47.546;19.254;2022-11-15T00:56:56;54.05;;;39.95;;
51214;SDS011;63849;47.546;19.254;2022-11-15T01:03:17;43.53;;;33.00;;
51214;SDS011;63849;47.546;19.254;2022-11-15T01:06:07;36.92;;;29.88;;
51214;SDS011;63849;47.546;19.254;2022-11-15T01:09:01;36.67;;;28.58;;
51214;SDS011;63849;47.546;19.254;2022-11-15T01:15:52;37.65;;;29.98;;
51214;SDS011;63849;47.546;19.254;2022-11-15T01:18:53;39.05;;;30.98;;
51214;SDS011;63849;47.546;19.254;2022-11-15T01:22:12;39.13;;;30.42;;
51214;SDS011;63849;47.546;19.254;2022-11-15T01:25:14;35.85;;;27.45;;
51214;SDS011;63849;47.546;19.254;2022-11-15T01:28:01;35.17;;;26.48;;
51214;SDS011;63849;47.546;19.254;2022-11-15T01:34:26;30.60;;;25.92;;
51214;SDS011;63849;47.546;19.254;2022-11-15T01:36:57;32.13;;;25.60;;
51214;SDS011;63849;47.546;19.254;2022-11-15T01:40:05;29.85;;;25.40;;
51214;SDS011;63849;47.546;19.254;2022-11-15T01:43:23;31.40;;;25.60;;
51214;SDS011;63849;47.546;19.254;2022-11-15T01:56:13;31.80;;;23.17;;
51214;SDS011;63849;47.546;19.254;2022-11-15T02:02:31;27.52;;;21.67;;
51214;SDS011;63849;47.546;19.254;2022-11-15T02:05:35;28.33;;;22.33;;
51214;SDS011;63849;47.546;19.254;2022-11-15T02:08:48;30.90;;;21.80;;
51214;SDS011;63849;47.546;19.254;2022-11-15T02:19:06;27.67;;;21.02;;
51214;SDS011;63849;47.546;19.254;2022-11-15T02:39:36;31.92;;;24.88;;
51214;SDS011;63849;47.546;19.254;2022-11-15T02:52:52;36.08;;;28.55;;
51214;SDS011;63849;47.546;19.254;2022-11-15T03:21:21;41.92;;;32.08;;
51214;SDS011;63849;47.546;19.254;2022-11-15T03:26:28;43.50;;;35.03;;
51214;SDS011;63849;47.546;19.254;2022-11-15T03:28:56;46.17;;;37.33;;
51214;SDS011;63849;47.546;19.254;2022-11-15T03:31:27;46.72;;;36.78;;
51214;SDS011;63849;47.546;19.254;2022-11-15T03:37:45;45.40;;;35.40;;
51214;SDS011;63849;47.546;19.254;2022-11-15T03:40:17;47.08;;;36.60;;
51214;SDS011;63849;47.546;19.254;2022-11-15T03:45:36;48.58;;;37.63;;
51214;SDS011;63849;47.546;19.254;2022-11-15T03:48:16;48.03;;;38.50;;
51214;SDS011;63849;47.546;19.254;2022-11-15T03:50:48;47.85;;;37.88;;
51214;SDS011;63849;47.546;19.254;2022-11-15T03:53:16;49.30;;;38.28;;
51214;SDS011;63849;47.546;19.254;2022-11-15T03:55:44;50.47;;;36.95;;
51214;SDS011;63849;47.546;19.254;2022-11-15T03:58:16;45.67;;;37.15;;
51214;SDS011;63849;47.546;19.254;2022-11-15T04:00:48;50.28;;;39.45;;
51214;SDS011;63849;47.546;19.254;2022-11-15T04:03:14;49.20;;;37.72;;
51214;SDS011;63849;47.546;19.254;2022-11-15T04:05:40;47.55;;;37.00;;
51214;SDS011;63849;47.546;19.254;2022-11-15T04:08:14;43.20;;;35.70;;
51214;SDS011;63849;47.546;19.254;2022-11-15T04:10:43;46.65;;;36.00;;
51214;SDS011;63849;47.546;19.254;2022-11-15T04:13:14;47.00;;;36.22;;
51214;SDS011;63849;47.546;19.254;2022-11-15T04:15:43;47.03;;;36.78;;
51214;SDS011;63849;47.546;19.254;2022-11-15T04:18:09;47.03;;;37.00;;
51214;SDS011;63849;47.546;19.254;2022-11-15T04:20:35;47.83;;;38.00;;
51214;SDS011;63849;47.546;19.254;2022-11-15T04:23:20;48.83;;;37.47;;
51214;SDS011;63849;47.546;19.254;2022-11-15T04:26:11;50.28;;;38.08;;
51214;SDS011;63849;47.546;19.254;2022-11-15T04:28:42;48.38;;;37.25;;
51214;SDS011;63849;47.546;19.254;2022-11-15T04:31:27;48.35;;;36.65;;
51214;SDS011;63849;47.546;19.254;2022-11-15T04:33:53;49.75;;;36.92;;
51214;SDS011;63849;47.546;19.254;2022-11-15T04:36:19;52.17;;;41.17;;
51214;SDS011;63849;47.546;19.254;2022-11-15T04:39:04;46.92;;;37.35;;
51214;SDS011;63849;47.546;19.254;2022-11-15T04:41:29;51.92;;;40.35;;
51214;SDS011;63849;47.546;19.254;2022-11-15T04:43:55;51.17;;;40.88;;
51214;SDS011;63849;47.546;19.254;2022-11-15T04:46:24;53.78;;;42.35;;
51214;SDS011;63849;47.546;19.254;2022-11-15T04:48:50;49.22;;;40.10;;
51214;SDS011;63849;47.546;19.254;2022-11-15T04:51:16;49.85;;;40.35;;
51214;SDS011;63849;47.546;19.254;2022-11-15T04:53:43;51.50;;;40.50;;
51214;SDS011;63849;47.546;19.254;2022-11-15T04:56:09;52.90;;;41.90;;
51214;SDS011;63849;47.546;19.254;2022-11-15T04:58:34;53.17;;;42.58;;
51214;SDS011;63849;47.546;19.254;2022-11-15T05:01:13;57.42;;;42.25;;
51214;SDS011;63849;47.546;19.254;2022-11-15T05:03:40;52.33;;;41.88;;
51214;SDS011;63849;47.546;19.254;2022-11-15T05:06:25;50.92;;;40.85;;
51214;SDS011;63849;47.546;19.254;2022-11-15T05:08:51;48.15;;;38.05;;
51214;SDS011;63849;47.546;19.254;2022-11-15T05:11:22;50.95;;;39.47;;
51214;SDS011;63849;47.546;19.254;2022-11-15T05:13:48;49.78;;;38.60;;
51214;SDS011;63849;47.546;19.254;2022-11-15T05:16:15;51.70;;;39.95;;
51214;SDS011;63849;47.546;19.254;2022-11-15T05:18:45;49.83;;;37.80;;
51214;SDS011;63849;47.546;19.254;2022-11-15T05:21:14;51.95;;;39.17;;
51214;SDS011;63849;47.546;19.254;2022-11-15T05:23:43;53.42;;;40.67;;
51214;SDS011;63849;47.546;19.254;2022-11-15T05:26:26;53.13;;;39.88;;
51214;SDS011;63849;47.546;19.254;2022-11-15T05:28:58;48.63;;;38.20;;
51214;SDS011;63849;47.546;19.254;2022-11-15T05:31:25;52.05;;;39.83;;
51214;SDS011;63849;47.546;19.254;2022-11-15T05:33:51;49.47;;;37.13;;
51214;SDS011;63849;47.546;19.254;2022-11-15T05:38:56;47.35;;;36.40;;
51214;SDS011;63849;47.546;19.254;2022-11-15T05:41:56;47.45;;;37.35;;
51214;SDS011;63849;47.546;19.254;2022-11-15T05:44:25;48.83;;;37.63;;
51214;SDS011;63849;47.546;19.254;2022-11-15T05:46:51;48.25;;;36.15;;
51214;SDS011;63849;47.546;19.254;2022-11-15T05:49:21;45.33;;;36.30;;
51214;SDS011;63849;47.546;19.254;2022-11-15T05:51:50;53.10;;;40.17;;
51214;SDS011;63849;47.546;19.254;2022-11-15T05:54:16;73.55;;;48.92;;
51214;SDS011;63849;47.546;19.254;2022-11-15T05:56:44;63.83;;;45.05;;
51214;SDS011;63849;47.546;19.254;2022-11-15T05:59:13;64.35;;;45.65;;
51214;SDS011;63849;47.546;19.254;2022-11-15T06:01:41;58.60;;;44.55;;
51214;SDS011;63849;47.546;19.254;2022-11-15T06:04:10;55.20;;;41.25;;
51214;SDS011;63849;47.546;19.254;2022-11-15T06:06:38;48.75;;;38.53;;
51214;SDS011;63849;47.546;19.254;2022-11-15T06:09:07;51.38;;;38.83;;
51214;SDS011;63849;47.546;19.254;2022-11-15T06:11:35;50.97;;;38.15;;
51214;SDS011;63849;47.546;19.254;2022-11-15T06:14:01;47.13;;;37.35;;
51214;SDS011;63849;47.546;19.254;2022-11-15T06:16:27;45.92;;;35.75;;
51214;SDS011;63849;47.546;19.254;2022-11-15T06:18:53;54.15;;;40.97;;
51214;SDS011;63849;47.546;19.254;2022-11-15T06:21:19;60.67;;;39.67;;
51214;SDS011;63849;47.546;19.254;2022-11-15T06:23:44;50.53;;;40.00;;
51214;SDS011;63849;47.546;19.254;2022-11-15T06:26:10;49.17;;;39.72;;
51214;SDS011;63849;47.546;19.254;2022-11-15T06:28:36;51.67;;;38.55;;
51214;SDS011;63849;47.546;19.254;2022-11-15T06:31:05;49.10;;;39.30;;
51214;SDS011;63849;47.546;19.254;2022-11-15T06:33:32;50.00;;;38.05;;
51214;SDS011;63849;47.546;19.254;2022-11-15T06:36:02;49.88;;;38.85;;
51214;SDS011;63849;47.546;19.254;2022-11-15T06:38:29;48.33;;;38.10;;
51214;SDS011;63849;47.546;19.254;2022-11-15T06:40:55;60.22;;;45.50;;
51214;SDS011;63849;47.546;19.254;2022-11-15T06:43:26;56.92;;;40.72;;
51214;SDS011;63849;47.546;19.254;2022-11-15T06:45:51;56.92;;;42.95;;
51214;SDS011;63849;47.546;19.254;2022-11-15T06:48:17;57.05;;;43.00;;
51214;SDS011;63849;47.546;19.254;2022-11-15T06:50:43;54.63;;;40.38;;
51214;SDS011;63849;47.546;19.254;2022-11-15T06:53:16;52.08;;;40.03;;
51214;SDS011;63849;47.546;19.254;2022-11-15T06:55:42;48.47;;;37.72;;
51214;SDS011;63849;47.546;19.254;2022-11-15T06:58:08;47.92;;;37.10;;
51214;SDS011;63849;47.546;19.254;2022-11-15T07:00:34;48.78;;;38.50;;
51214;SDS011;63849;47.546;19.254;2022-11-15T07:03:00;48.08;;;39.45;;
51214;SDS011;63849;47.546;19.254;2022-11-15T07:05:26;49.88;;;40.25;;
51214;SDS011;63849;47.546;19.254;2022-11-15T07:07:53;46.15;;;36.70;;
51214;SDS011;63849;47.546;19.254;2022-11-15T07:10:19;46.95;;;35.28;;
51214;SDS011;63849;47.546;19.254;2022-11-15T07:12:47;42.42;;;33.33;;
51214;SDS011;63849;47.546;19.254;2022-11-15T07:15:14;45.80;;;34.50;;
51214;SDS011;63849;47.546;19.254;2022-11-15T07:17:40;40.45;;;33.42;;
51214;SDS011;63849;47.546;19.254;2022-11-15T07:20:06;43.80;;;34.95;;
51214;SDS011;63849;47.546;19.254;2022-11-15T07:22:32;43.80;;;36.83;;
51214;SDS011;63849;47.546;19.254;2022-11-15T07:24:58;74.35;;;67.15;;
51214;SDS011;63849;47.546;19.254;2022-11-15T07:27:23;48.97;;;42.45;;
51214;SDS011;63849;47.546;19.254;2022-11-15T07:29:49;41.83;;;35.67;;
51214;SDS011;63849;47.546;19.254;2022-11-15T07:32:15;42.75;;;34.08;;
51214;SDS011;63849;47.546;19.254;2022-11-15T07:34:41;42.63;;;33.55;;
51214;SDS011;63849;47.546;19.254;2022-11-15T07:37:07;40.28;;;33.45;;
51214;SDS011;63849;47.546;19.254;2022-11-15T07:39:32;40.83;;;32.85;;
51214;SDS011;63849;47.546;19.254;2022-11-15T07:41:58;50.75;;;45.15;;
51214;SDS011;63849;47.546;19.254;2022-11-15T07:44:43;48.53;;;40.47;;
51214;SDS011;63849;47.546;19.254;2022-11-15T07:47:09;43.95;;;35.70;;
51214;SDS011;63849;47.546;19.254;2022-11-15T07:49:34;44.00;;;34.33;;
51214;SDS011;63849;47.546;19.254;2022-11-15T07:52:00;42.28;;;32.53;;
51214;SDS011;63849;47.546;19.254;2022-11-15T07:54:26;41.88;;;33.03;;
51214;SDS011;63849;47.546;19.254;2022-11-15T07:56:51;42.40;;;32.08;;
51214;SDS011;63849;47.546;19.254;2022-11-15T07:59:17;42.80;;;33.72;;
51214;SDS011;63849;47.546;19.254;2022-11-15T08:01:44;41.75;;;32.05;;
51214;SDS011;63849;47.546;19.254;2022-11-15T08:04:10;40.88;;;32.88;;
51214;SDS011;63849;47.546;19.254;2022-11-15T08:06:36;41.53;;;34.05;;
51214;SDS011;63849;47.546;19.254;2022-11-15T08:09:02;41.13;;;33.30;;
51214;SDS011;63849;47.546;19.254;2022-11-15T08:11:28;43.25;;;35.05;;
51214;SDS011;63849;47.546;19.254;2022-11-15T08:13:54;41.20;;;33.67;;
51214;SDS011;63849;47.546;19.254;2022-11-15T08:16:20;50.92;;;37.17;;
51214;SDS011;63849;47.546;19.254;2022-11-15T08:18:46;43.95;;;35.35;;
51214;SDS011;63849;47.546;19.254;2022-11-15T08:21:13;44.67;;;35.50;;
51214;SDS011;63849;47.546;19.254;2022-11-15T08:23:43;43.97;;;34.40;;
51214;SDS011;63849;47.546;19.254;2022-11-15T08:26:09;43.53;;;33.33;;
51214;SDS011;63849;47.546;19.254;2022-11-15T08:28:34;44.10;;;34.75;;
51214;SDS011;63849;47.546;19.254;2022-11-15T08:31:00;39.25;;;32.90;;
51214;SDS011;63849;47.546;19.254;2022-11-15T08:33:27;45.05;;;35.15;;
51214;SDS011;63849;47.546;19.254;2022-11-15T08:35:55;41.38;;;31.55;;
51214;SDS011;63849;47.546;19.254;2022-11-15T08:38:22;40.92;;;33.08;;
51214;SDS011;63849;47.546;19.254;2022-11-15T08:40:49;38.88;;;30.90;;
51214;SDS011;63849;47.546;19.254;2022-11-15T08:43:17;39.50;;;32.22;;
51214;SDS011;63849;47.546;19.254;2022-11-15T08:45:42;42.67;;;31.73;;
51214;SDS011;63849;47.546;19.254;2022-11-15T08:48:08;38.35;;;32.25;;
51214;SDS011;63849;47.546;19.254;2022-11-15T08:50:34;39.47;;;31.02;;
51214;SDS011;63849;47.546;19.254;2022-11-15T08:53:04;41.50;;;31.77;;
51214;SDS011;63849;47.546;19.254;2022-11-15T08:55:35;38.40;;;31.75;;
51214;SDS011;63849;47.546;19.254;2022-11-15T08:58:03;41.58;;;34.63;;
51214;SDS011;63849;47.546;19.254;2022-11-15T09:00:29;38.83;;;31.55;;
51214;SDS011;63849;47.546;19.254;2022-11-15T09:02:55;39.00;;;31.08;;
51214;SDS011;63849;47.546;19.254;2022-11-15T09:05:21;38.25;;;30.67;;
51214;SDS011;63849;47.546;19.254;2022-11-15T09:07:46;37.97;;;29.98;;
51214;SDS011;63849;47.546;19.254;2022-11-15T09:10:12;37.15;;;29.60;;
51214;SDS011;63849;47.546;19.254;2022-11-15T09:12:38;34.67;;;30.13;;
51214;SDS011;63849;47.546;19.254;2022-11-15T09:15:04;39.30;;;31.35;;
51214;SDS011;63849;47.546;19.254;2022-11-15T09:17:31;36.00;;;31.23;;
51214;SDS011;63849;47.546;19.254;2022-11-15T09:19:57;38.08;;;30.90;;
51214;SDS011;63849;47.546;19.254;2022-11-15T09:22:23;39.10;;;31.65;;
51214;SDS011;63849;47.546;19.254;2022-11-15T09:24:49;38.80;;;31.73;;
51214;SDS011;63849;47.546;19.254;2022-11-15T09:27:14;39.42;;;32.92;;
51214;SDS011;63849;47.546;19.254;2022-11-15T09:29:40;39.63;;;32.45;;
51214;SDS011;63849;47.546;19.254;2022-11-15T09:32:06;38.40;;;31.55;;
51214;SDS011;63849;47.546;19.254;2022-11-15T09:34:31;39.05;;;32.00;;
51214;SDS011;63849;47.546;19.254;2022-11-15T09:36:57;38.55;;;31.70;;
51214;SDS011;63849;47.546;19.254;2022-11-15T09:39:23;40.10;;;32.85;;
51214;SDS011;63849;47.546;19.254;2022-11-15T09:44:25;43.55;;;35.70;;
51214;SDS011;63849;47.546;19.254;2022-11-15T09:49:53;39.38;;;33.47;;
51214;SDS011;63849;47.546;19.254;2022-11-15T09:52:23;42.57;;;32.77;;
51214;SDS011;63849;47.546;19.254;2022-11-15T09:54:49;40.28;;;34.45;;
51214;SDS011;63849;47.546;19.254;2022-11-15T10:05:00;44.83;;;34.97;;
51214;SDS011;63849;47.546;19.254;2022-11-15T10:07:30;39.72;;;32.88;;
51214;SDS011;63849;47.546;19.254;2022-11-15T10:10:20;42.50;;;35.50;;
51214;SDS011;63849;47.546;19.254;2022-11-15T10:12:52;42.80;;;35.65;;
51214;SDS011;63849;47.546;19.254;2022-11-15T10:15:19;41.50;;;35.90;;
51214;SDS011;63849;47.546;19.254;2022-11-15T10:20:38;39.30;;;32.40;;
51214;SDS011;63849;47.546;19.254;2022-11-15T10:23:14;39.03;;;32.00;;
51214;SDS011;63849;47.546;19.254;2022-11-15T10:25:45;39.85;;;32.40;;
51214;SDS011;63849;47.546;19.254;2022-11-15T10:30:40;40.00;;;31.88;;
51214;SDS011;63849;47.546;19.254;2022-11-15T10:33:31;36.75;;;30.67;;
51214;SDS011;63849;47.546;19.254;2022-11-15T10:41:22;35.70;;;30.77;;
51214;SDS011;63849;47.546;19.254;2022-11-15T10:44:02;45.50;;;34.95;;
51214;SDS011;63849;47.546;19.254;2022-11-15T10:46:48;39.97;;;32.60;;
51214;SDS011;63849;47.546;19.254;2022-11-15T10:49:17;39.58;;;33.33;;
51214;SDS011;63849;47.546;19.254;2022-11-15T10:54:33;40.13;;;33.63;;
51214;SDS011;63849;47.546;19.254;2022-11-15T11:02:57;43.83;;;35.80;;
51214;SDS011;63849;47.546;19.254;2022-11-15T11:10:39;40.53;;;34.95;;
51214;SDS011;63849;47.546;19.254;2022-11-15T11:13:22;41.42;;;34.28;;
51214;SDS011;63849;47.546;19.254;2022-11-15T11:16:39;52.92;;;42.63;;
51214;SDS011;63849;47.546;19.254;2022-11-15T11:18:42;56.25;;;43.55;;
51214;SDS011;63849;47.546;19.254;2022-11-15T11:21:40;52.60;;;42.50;;
51214;SDS011;63849;47.546;19.254;2022-11-15T11:30:03;45.72;;;36.35;;
51214;SDS011;63849;47.546;19.254;2022-11-15T11:32:54;40.00;;;34.03;;
51214;SDS011;63849;47.546;19.254;2022-11-15T11:43:51;47.17;;;37.72;;
51214;SDS011;63849;47.546;19.254;2022-11-15T11:49:10;42.30;;;34.58;;
51214;SDS011;63849;47.546;19.254;2022-11-15T11:54:31;48.08;;;36.75;;
51214;SDS011;63849;47.546;19.254;2022-11-15T11:57:40;47.47;;;37.08;;
51214;SDS011;63849;47.546;19.254;2022-11-15T12:05:57;43.15;;;33.38;;
51214;SDS011;63849;47.546;19.254;2022-11-15T12:13:53;41.30;;;33.10;;
51214;SDS011;63849;47.546;19.254;2022-11-15T12:16:26;43.10;;;35.55;;
51214;SDS011;63849;47.546;19.254;2022-11-15T12:18:56;45.42;;;35.15;;
51214;SDS011;63849;47.546;19.254;2022-11-15T12:24:21;44.33;;;34.58;;
51214;SDS011;63849;47.546;19.254;2022-11-15T12:30:00;40.78;;;34.10;;
51214;SDS011;63849;47.546;19.254;2022-11-15T12:32:39;44.63;;;34.55;;
51214;SDS011;63849;47.546;19.254;2022-11-15T12:35:34;40.60;;;34.50;;
51214;SDS011;63849;47.546;19.254;2022-11-15T12:38:09;40.80;;;33.50;;
51214;SDS011;63849;47.546;19.254;2022-11-15T12:40:37;41.17;;;34.25;;
51214;SDS011;63849;47.546;19.254;2022-11-15T12:51:21;41.75;;;33.97;;
51214;SDS011;63849;47.546;19.254;2022-11-15T13:02:24;42.88;;;34.42;;
51214;SDS011;63849;47.546;19.254;2022-11-15T13:13:08;43.53;;;35.88;;
51214;SDS011;63849;47.546;19.254;2022-11-15T13:15:38;40.15;;;33.58;;
51214;SDS011;63849;47.546;19.254;2022-11-15T13:20:48;39.17;;;32.50;;
51214;SDS011;63849;47.546;19.254;2022-11-15T13:23:15;39.97;;;31.95;;
51214;SDS011;63849;47.546;19.254;2022-11-15T13:31:40;38.58;;;31.88;;
51214;SDS011;63849;47.546;19.254;2022-11-15T13:34:13;42.13;;;33.53;;
51214;SDS011;63849;47.546;19.254;2022-11-15T13:36:45;39.58;;;34.40;;
51214;SDS011;63849;47.546;19.254;2022-11-15T13:39:29;43.63;;;34.38;;
51214;SDS011;63849;47.546;19.254;2022-11-15T13:41:56;48.60;;;36.38;;
51214;SDS011;63849;47.546;19.254;2022-11-15T13:44:26;43.92;;;35.78;;
51214;SDS011;63849;47.546;19.254;2022-11-15T13:47:01;44.58;;;36.08;;
51214;SDS011;63849;47.546;19.254;2022-11-15T13:49:41;48.40;;;39.35;;
51214;SDS011;63849;47.546;19.254;2022-11-15T13:52:07;49.13;;;38.08;;
51214;SDS011;63849;47.546;19.254;2022-11-15T13:54:44;47.00;;;37.72;;
51214;SDS011;63849;47.546;19.254;2022-11-15T13:57:30;47.08;;;35.95;;
51214;SDS011;63849;47.546;19.254;2022-11-15T14:00:24;45.25;;;35.25;;
51214;SDS011;63849;47.546;19.254;2022-11-15T14:03:06;43.58;;;36.55;;
51214;SDS011;63849;47.546;19.254;2022-11-15T14:06:32;47.05;;;37.45;;
51214;SDS011;63849;47.546;19.254;2022-11-15T14:11:26;55.10;;;38.60;;
51214;SDS011;63849;47.546;19.254;2022-11-15T14:14:26;61.58;;;45.80;;
51214;SDS011;63849;47.546;19.254;2022-11-15T14:16:55;51.22;;;39.35;;
51214;SDS011;63849;47.546;19.254;2022-11-15T14:22:33;55.72;;;41.85;;
51214;SDS011;63849;47.546;19.254;2022-11-15T14:24:37;53.03;;;39.10;;
51214;SDS011;63849;47.546;19.254;2022-11-15T14:27:23;52.25;;;39.70;;
51214;SDS011;63849;47.546;19.254;2022-11-15T14:29:51;49.72;;;38.13;;
51214;SDS011;63849;47.546;19.254;2022-11-15T14:32:19;49.72;;;38.42;;
51214;SDS011;63849;47.546;19.254;2022-11-15T14:34:53;46.38;;;35.85;;
51214;SDS011;63849;47.546;19.254;2022-11-15T14:37:25;48.65;;;36.40;;
51214;SDS011;63849;47.546;19.254;2022-11-15T14:39:53;47.65;;;37.60;;
51214;SDS011;63849;47.546;19.254;2022-11-15T14:42:20;47.58;;;36.35;;
51214;SDS011;63849;47.546;19.254;2022-11-15T14:44:47;50.85;;;39.08;;
51214;SDS011;63849;47.546;19.254;2022-11-15T14:47:13;46.55;;;36.13;;
51214;SDS011;63849;47.546;19.254;2022-11-15T14:49:39;54.00;;;41.75;;
51214;SDS011;63849;47.546;19.254;2022-11-15T14:52:22;46.28;;;36.35;;
51214;SDS011;63849;47.546;19.254;2022-11-15T14:54:49;48.30;;;36.78;;
51214;SDS011;63849;47.546;19.254;2022-11-15T14:57:14;53.50;;;40.47;;
51214;SDS011;63849;47.546;19.254;2022-11-15T14:59:40;60.67;;;42.50;;
51214;SDS011;63849;47.546;19.254;2022-11-15T15:02:13;54.35;;;39.22;;
51214;SDS011;63849;47.546;19.254;2022-11-15T15:04:43;48.83;;;37.88;;
51214;SDS011;63849;47.546;19.254;2022-11-15T15:07:08;54.50;;;38.80;;
51214;SDS011;63849;47.546;19.254;2022-11-15T15:09:34;52.38;;;41.03;;
51214;SDS011;63849;47.546;19.254;2022-11-15T15:12:00;53.70;;;41.35;;
51214;SDS011;63849;47.546;19.254;2022-11-15T15:14:26;57.17;;;41.80;;
51214;SDS011;63849;47.546;19.254;2022-11-15T15:16:51;57.95;;;44.08;;
51214;SDS011;63849;47.546;19.254;2022-11-15T15:19:17;63.28;;;46.80;;
51214;SDS011;63849;47.546;19.254;2022-11-15T15:21:43;68.60;;;48.35;;
51214;SDS011;63849;47.546;19.254;2022-11-15T15:24:13;63.58;;;46.88;;
51214;SDS011;63849;47.546;19.254;2022-11-15T15:26:40;65.43;;;47.60;;
51214;SDS011;63849;47.546;19.254;2022-11-15T15:29:05;83.47;;;61.80;;
51214;SDS011;63849;47.546;19.254;2022-11-15T15:31:33;70.18;;;55.15;;
51214;SDS011;63849;47.546;19.254;2022-11-15T15:34:00;64.63;;;49.20;;
51214;SDS011;63849;47.546;19.254;2022-11-15T15:36:26;50.97;;;40.33;;
51214;SDS011;63849;47.546;19.254;2022-11-15T15:38:51;48.67;;;37.00;;
51214;SDS011;63849;47.546;19.254;2022-11-15T15:41:17;46.22;;;37.75;;
51214;SDS011;63849;47.546;19.254;2022-11-15T15:43:43;44.72;;;38.30;;
51214;SDS011;63849;47.546;19.254;2022-11-15T15:46:10;47.65;;;37.53;;
51214;SDS011;63849;47.546;19.254;2022-11-15T15:48:38;45.42;;;37.55;;
51214;SDS011;63849;47.546;19.254;2022-11-15T15:51:06;49.33;;;40.40;;
51214;SDS011;63849;47.546;19.254;2022-11-15T15:53:33;50.72;;;41.03;;
51214;SDS011;63849;47.546;19.254;2022-11-15T15:55:59;54.42;;;43.22;;
51214;SDS011;63849;47.546;19.254;2022-11-15T15:58:25;49.50;;;38.97;;
51214;SDS011;63849;47.546;19.254;2022-11-15T16:00:51;48.65;;;37.05;;
51214;SDS011;63849;47.546;19.254;2022-11-15T16:03:16;46.70;;;37.53;;
51214;SDS011;63849;47.546;19.254;2022-11-15T16:05:42;44.50;;;36.22;;
51214;SDS011;63849;47.546;19.254;2022-11-15T16:08:12;48.97;;;38.17;;
51214;SDS011;63849;47.546;19.254;2022-11-15T16:10:47;43.65;;;35.47;;
51214;SDS011;63849;47.546;19.254;2022-11-15T16:13:13;52.70;;;42.60;;
51214;SDS011;63849;47.546;19.254;2022-11-15T16:15:39;54.13;;;43.25;;
51214;SDS011;63849;47.546;19.254;2022-11-15T16:18:05;53.67;;;43.30;;
51214;SDS011;63849;47.546;19.254;2022-11-15T16:20:38;52.42;;;41.53;;
51214;SDS011;63849;47.546;19.254;2022-11-15T16:23:08;53.13;;;40.63;;
51214;SDS011;63849;47.546;19.254;2022-11-15T16:25:43;46.63;;;36.17;;
51214;SDS011;63849;47.546;19.254;2022-11-15T16:28:15;46.50;;;36.70;;
51214;SDS011;63849;47.546;19.254;2022-11-15T16:30:44;52.80;;;40.60;;
51214;SDS011;63849;47.546;19.254;2022-11-15T16:33:10;65.93;;;45.40;;
51214;SDS011;63849;47.546;19.254;2022-11-15T16:35:36;57.13;;;41.13;;
51214;SDS011;63849;47.546;19.254;2022-11-15T16:38:02;55.67;;;40.70;;
51214;SDS011;63849;47.546;19.254;2022-11-15T16:40:29;58.75;;;40.15;;
51214;SDS011;63849;47.546;19.254;2022-11-15T16:42:57;61.30;;;41.03;;
51214;SDS011;63849;47.546;19.254;2022-11-15T16:45:24;58.25;;;39.83;;
51214;SDS011;63849;47.546;19.254;2022-11-15T16:47:50;66.35;;;42.80;;
51214;SDS011;63849;47.546;19.254;2022-11-15T16:50:21;64.15;;;42.60;;
51214;SDS011;63849;47.546;19.254;2022-11-15T16:52:54;79.43;;;47.57;;
51214;SDS011;63849;47.546;19.254;2022-11-15T16:55:21;72.68;;;47.35;;
51214;SDS011;63849;47.546;19.254;2022-11-15T16:57:49;85.13;;;49.40;;
51214;SDS011;63849;47.546;19.254;2022-11-15T17:00:16;87.75;;;51.78;;
51214;SDS011;63849;47.546;19.254;2022-11-15T17:02:43;81.65;;;50.75;;
51214;SDS011;63849;47.546;19.254;2022-11-15T17:05:14;77.40;;;49.60;;
51214;SDS011;63849;47.546;19.254;2022-11-15T17:07:41;84.40;;;52.17;;
51214;SDS011;63849;47.546;19.254;2022-11-15T17:10:08;88.32;;;53.80;;
51214;SDS011;63849;47.546;19.254;2022-11-15T17:12:36;93.47;;;57.25;;
51214;SDS011;63849;47.546;19.254;2022-11-15T17:15:02;129.45;;;69.00;;
51214;SDS011;63849;47.546;19.254;2022-11-15T17:17:29;98.28;;;58.03;;
51214;SDS011;63849;47.546;19.254;2022-11-15T17:19:55;116.25;;;66.25;;
51214;SDS011;63849;47.546;19.254;2022-11-15T17:22:21;107.03;;;62.13;;
51214;SDS011;63849;47.546;19.254;2022-11-15T17:24:47;109.78;;;61.15;;
51214;SDS011;63849;47.546;19.254;2022-11-15T17:27:13;113.20;;;61.38;;
51214;SDS011;63849;47.546;19.254;2022-11-15T17:29:40;110.95;;;64.40;;
51214;SDS011;63849;47.546;19.254;2022-11-15T17:32:06;114.60;;;61.97;;
51214;SDS011;63849;47.546;19.254;2022-11-15T17:34:32;110.60;;;60.17;;
51214;SDS011;63849;47.546;19.254;2022-11-15T17:36:58;114.93;;;61.67;;
51214;SDS011;63849;47.546;19.254;2022-11-15T17:39:24;111.85;;;63.33;;
51214;SDS011;63849;47.546;19.254;2022-11-15T17:41:50;119.47;;;68.20;;
51214;SDS011;63849;47.546;19.254;2022-11-15T17:44:16;125.40;;;67.35;;
51214;SDS011;63849;47.546;19.254;2022-11-15T17:46:42;116.13;;;67.90;;
51214;SDS011;63849;47.546;19.254;2022-11-15T17:49:08;122.30;;;70.60;;
51214;SDS011;63849;47.546;19.254;2022-11-15T17:51:34;135.18;;;73.60;;
51214;SDS011;63849;47.546;19.254;2022-11-15T17:53:59;152.68;;;84.07;;
51214;SDS011;63849;47.546;19.254;2022-11-15T17:56:26;168.23;;;91.45;;
51214;SDS011;63849;47.546;19.254;2022-11-15T17:58:54;174.40;;;94.80;;
51214;SDS011;63849;47.546;19.254;2022-11-15T18:01:22;133.43;;;82.70;;
51214;SDS011;63849;47.546;19.254;2022-11-15T18:03:50;126.93;;;74.47;;
51214;SDS011;63849;47.546;19.254;2022-11-15T18:06:17;137.70;;;74.93;;
51214;SDS011;63849;47.546;19.254;2022-11-15T18:08:44;119.38;;;70.15;;
51214;SDS011;63849;47.546;19.254;2022-11-15T18:11:15;124.75;;;70.90;;
51214;SDS011;63849;47.546;19.254;2022-11-15T18:13:46;121.43;;;72.20;;
51214;SDS011;63849;47.546;19.254;2022-11-15T18:16:16;130.65;;;74.47;;
51214;SDS011;63849;47.546;19.254;2022-11-15T18:18:44;120.72;;;74.55;;
51214;SDS011;63849;47.546;19.254;2022-11-15T18:21:10;122.38;;;72.68;;
51214;SDS011;63849;47.546;19.254;2022-11-15T18:23:38;113.68;;;69.53;;
51214;SDS011;63849;47.546;19.254;2022-11-15T18:26:06;115.47;;;68.43;;
51214;SDS011;63849;47.546;19.254;2022-11-15T18:28:39;117.47;;;70.07;;
51214;SDS011;63849;47.546;19.254;2022-11-15T18:33:44;121.85;;;74.40;;